Ever Ursula — 3FCB9 — position and weather

sailwx.info

Track history (hours):
 
Tides and Currents Weather Stations Pressure Air Temp Water Temp Dewpoint Dewpoint Depression Visibility Wind Speed Wind Dir Waves Ship Positions

Ever Ursula

Last reported at 2016-Sep-18 00:31 UTC. Time now 2016-Sep-25 02:05 UTC.
Position N 38°23' W 128°16'.

Type: Cargo ship. MMSI: 357737000.

Date/timePositionNaut miles runAvg speedWind from/ knotsBaromVisibWave heightAir tempDewpointWater temp
2016-Sep-18 00:31N 38°23' W 128°16'2613.4
2016-Sep-17 22:33N 38°09' W 127°47'1413.9
2016-Sep-17 21:33N 38°09' W 127°30'1414.1
2016-Sep-17 20:33N 38°09' W 127°12'1914.8
2016-Sep-17 19:16N 38°10' W 126°48'8514.8
2016-Sep-17 13:33N 38°10' W 124°60'1515.4
2016-Sep-17 12:33N 38°10' W 124°40'3115.3
2016-Sep-17 10:33N 38°10' W 124°01'1515.4
2016-Sep-17 09:34N 38°10' W 123°42'1515.0
2016-Sep-17 08:33N 38°10' W 123°23'10 9.5
2016-Sep-17 07:33N 38°03' W 123°14'19 9.5
2016-Sep-17 05:33N 37°52' W 122°54'9 9.3
2016-Sep-17 04:33N 37°47' W 122°44'19 4.7
2016-Sep-17 00:33N 37°48' W 122°20'0 0.0
2016-Sep-16 17:31N 37°48' W 122°20'0 0.0
2016-Sep-16 15:31N 37°48' W 122°20'0 0.0
2016-Sep-16 12:33N 37°48' W 122°20'0 0.0
2016-Sep-16 09:33N 37°48' W 122°20'1 0.4
2016-Sep-16 07:33N 37°49' W 122°20'32 7.9
2016-Sep-16 03:33N 37°21' W 122°40'1313.1
2016-Sep-16 02:33N 37°08' W 122°38'13 6.7
2016-Sep-16 00:33N 36°55' W 122°36'2 1.2
2016-Sep-15 22:33N 36°57' W 122°38'1 1.0
2016-Sep-15 21:33N 36°58' W 122°38'1 1.0
2016-Sep-15 20:33N 36°59' W 122°39'2 0.8
2016-Sep-15 18:33N 37°00' W 122°40'3 0.4
2016-Sep-15 12:33N 37°03' W 122°41'1 0.8
2016-Sep-15 11:33N 37°03' W 122°41'6 0.8
2016-Sep-15 04:33N 37°09' W 122°44'0 0.2
2016-Sep-15 03:33N 37°09' W 122°43'2110.7
2016-Sep-15 01:33N 36°48' W 122°39'4013.3
2016-Sep-14 22:33N 36°09' W 122°27'1413.9
2016-Sep-14 21:33N 35°58' W 122°17'5613.9
2016-Sep-14 17:34N 35°14' W 121°36'1813.9
2016-Sep-14 16:17N 34°59' W 121°23'10313.1
2016-Sep-14 08:26N 34°09' W 119°35'2713.2
2016-Sep-14 06:22N 33°59' W 119°04'3311.3
2016-Sep-14 03:26N 33°42' W 118°29'12 2.4
2016-Sep-13 22:33N 33°44' W 118°15'0 0.0
2016-Sep-13 20:33N 33°44' W 118°15'0 0.0
2016-Sep-13 18:33N 33°44' W 118°15'0 0.0
2016-Sep-13 17:33N 33°44' W 118°15'0 0.0
2016-Sep-13 16:32N 33°44' W 118°15'0 0.0
2016-Sep-13 11:32N 33°44' W 118°15'0 0.0
2016-Sep-13 09:32N 33°44' W 118°15'0 0.0
2016-Sep-13 07:32N 33°44' W 118°15'0 0.1
2016-Sep-13 06:32N 33°44' W 118°15'0 0.0
2016-Sep-13 04:32N 33°44' W 118°15'0 0.0
2016-Sep-13 02:29N 33°44' W 118°15'0 0.0
2016-Sep-12 23:32N 33°44' W 118°15'0 0.0
2016-Sep-12 21:32N 33°44' W 118°15'0 0.0
2016-Sep-12 19:31N 33°44' W 118°15'0 0.0
2016-Sep-12 17:31N 33°44' W 118°15'0 0.0
2016-Sep-12 14:28N 33°44' W 118°15'0 0.0
2016-Sep-12 13:28N 33°44' W 118°15'0 0.0
2016-Sep-12 12:31N 33°44' W 118°15'0 0.0
2016-Sep-12 11:31N 33°44' W 118°15'0 0.0
2016-Sep-12 10:31N 33°44' W 118°15'0 0.0
2016-Sep-12 07:25N 33°44' W 118°15'0 0.1
2016-Sep-12 06:31N 33°44' W 118°15'0 0.0
2016-Sep-12 03:33N 33°44' W 118°15'0 0.0
2016-Sep-12 01:33N 33°44' W 118°15'0 0.0
2016-Sep-11 23:33N 33°44' W 118°15'0 0.2
2016-Sep-11 22:33N 33°44' W 118°15'6 5.7
2016-Sep-11 21:33N 33°38' W 118°14'9 9.1
2016-Sep-11 20:33N 33°35' W 118°25'1010.5
2016-Sep-11 19:33N 33°36' W 118°37'1010.4
2016-Sep-11 18:33N 33°36' W 118°50'1110.6
2016-Sep-11 17:33N 33°36' W 119°03'1513.3
2016-Sep-11 16:26N 33°36' W 119°21'1415.7
2016-Sep-11 15:33N 33°36' W 119°37'2316.8
2016-Sep-11 14:11N 33°36' W 120°05'1116.5
2016-Sep-11 13:30N 33°36' W 120°19'1616.9
2016-Sep-11 12:32N 33°36' W 120°38'1917.0
2016-Sep-11 11:27N 33°36' W 121°00'2117.4
2016-Sep-11 10:14N 33°37' W 121°25'2917.1
2016-Sep-11 08:32N 33°36' W 122°00'2117.3
2016-Sep-11 07:20N 33°37' W 122°25'6517.3
2016-Sep-11 03:34N 33°38' W 123°43'1413.9
2016-Sep-11 02:33N 33°38' W 124°00'3115.4
2016-Sep-11 00:32N 33°42' W 124°37'3816.5
2016-Sep-10 22:12N 34°03' W 125°16'7219.0
2016-Sep-10 18:26N 34°39' W 126°31'5117.2
2016-Sep-10 15:27N 35°05' W 127°25'1618.1
2016-Sep-10 14:33N 35°13' W 127°42'6619.3
2016-Sep-10 11:06N 35°46' W 128°53'1518.8
2016-Sep-10 10:19N 35°53' W 129°09'5118.4
2016-Sep-10 07:32N 36°18' W 130°04'1818.8
2016-Sep-10 06:33N 36°27' W 130°24'1918.8
2016-Sep-10 05:33N 36°36' W 130°45'1818.4
2016-Sep-10 04:33N 36°44' W 131°05'2218.4
2016-Sep-10 03:21N 36°55' W 131°29'1418.3
2016-Sep-10 02:33N 37°02' W 131°45'1818.1
2016-Sep-10 01:33N 37°10' W 132°06'1818.3
2016-Sep-10 00:33N 37°18' W 132°26'1918.2
2016-Sep-09 23:29N 37°28' W 132°47'1918.4
2016-Sep-09 22:26N 37°36' W 133°09'1618.4
2016-Sep-09 21:33N 37°43' W 133°28'  
Track history (hours):
 
Tides and Currents Weather Stations Pressure Air Temp Water Temp Dewpoint Dewpoint Depression Visibility Wind Speed Wind Dir Waves Ship Positions

Ever Ursula

Last reported at 2016-Sep-18 00:31 UTC. Time now 2016-Sep-25 02:05 UTC.
Position N 38°23' W 128°16'.

Type: Cargo ship. MMSI: 357737000.

Date/timePositionNaut miles runAvg speedWind from/ knotsBaromVisibWave heightAir tempDewpointWater temp
2016-Sep-18 00:31N 38°23' W 128°16'2613.4
2016-Sep-17 22:33N 38°09' W 127°47'1413.9
2016-Sep-17 21:33N 38°09' W 127°30'1414.1
2016-Sep-17 20:33N 38°09' W 127°12'1914.8
2016-Sep-17 19:16N 38°10' W 126°48'8514.8
2016-Sep-17 13:33N 38°10' W 124°60'1515.4
2016-Sep-17 12:33N 38°10' W 124°40'3115.3
2016-Sep-17 10:33N 38°10' W 124°01'1515.4
2016-Sep-17 09:34N 38°10' W 123°42'1515.0
2016-Sep-17 08:33N 38°10' W 123°23'10 9.5
2016-Sep-17 07:33N 38°03' W 123°14'19 9.5
2016-Sep-17 05:33N 37°52' W 122°54'9 9.3
2016-Sep-17 04:33N 37°47' W 122°44'19 4.7
2016-Sep-17 00:33N 37°48' W 122°20'0 0.0
2016-Sep-16 17:31N 37°48' W 122°20'0 0.0
2016-Sep-16 15:31N 37°48' W 122°20'0 0.0
2016-Sep-16 12:33N 37°48' W 122°20'0 0.0
2016-Sep-16 09:33N 37°48' W 122°20'1 0.4
2016-Sep-16 07:33N 37°49' W 122°20'32 7.9
2016-Sep-16 03:33N 37°21' W 122°40'1313.1
2016-Sep-16 02:33N 37°08' W 122°38'13 6.7
2016-Sep-16 00:33N 36°55' W 122°36'2 1.2
2016-Sep-15 22:33N 36°57' W 122°38'1 1.0
2016-Sep-15 21:33N 36°58' W 122°38'1 1.0
2016-Sep-15 20:33N 36°59' W 122°39'2 0.8
2016-Sep-15 18:33N 37°00' W 122°40'3 0.4
2016-Sep-15 12:33N 37°03' W 122°41'1 0.8
2016-Sep-15 11:33N 37°03' W 122°41'6 0.8
2016-Sep-15 04:33N 37°09' W 122°44'0 0.2
2016-Sep-15 03:33N 37°09' W 122°43'2110.7
2016-Sep-15 01:33N 36°48' W 122°39'4013.3
2016-Sep-14 22:33N 36°09' W 122°27'1413.9
2016-Sep-14 21:33N 35°58' W 122°17'5613.9
2016-Sep-14 17:34N 35°14' W 121°36'1813.9
2016-Sep-14 16:17N 34°59' W 121°23'10313.1
2016-Sep-14 08:26N 34°09' W 119°35'2713.2
2016-Sep-14 06:22N 33°59' W 119°04'3311.3
2016-Sep-14 03:26N 33°42' W 118°29'12 2.4
2016-Sep-13 22:33N 33°44' W 118°15'0 0.0
2016-Sep-13 20:33N 33°44' W 118°15'0 0.0
2016-Sep-13 18:33N 33°44' W 118°15'0 0.0
2016-Sep-13 17:33N 33°44' W 118°15'0 0.0
2016-Sep-13 16:32N 33°44' W 118°15'0 0.0
2016-Sep-13 11:32N 33°44' W 118°15'0 0.0
2016-Sep-13 09:32N 33°44' W 118°15'0 0.0
2016-Sep-13 07:32N 33°44' W 118°15'0 0.1
2016-Sep-13 06:32N 33°44' W 118°15'0 0.0
2016-Sep-13 04:32N 33°44' W 118°15'0 0.0
2016-Sep-13 02:29N 33°44' W 118°15'0 0.0
2016-Sep-12 23:32N 33°44' W 118°15'0 0.0
2016-Sep-12 21:32N 33°44' W 118°15'0 0.0
2016-Sep-12 19:31N 33°44' W 118°15'0 0.0
2016-Sep-12 17:31N 33°44' W 118°15'0 0.0
2016-Sep-12 14:28N 33°44' W 118°15'0 0.0
2016-Sep-12 13:28N 33°44' W 118°15'0 0.0
2016-Sep-12 12:31N 33°44' W 118°15'0 0.0
2016-Sep-12 11:31N 33°44' W 118°15'0 0.0
2016-Sep-12 10:31N 33°44' W 118°15'0 0.0
2016-Sep-12 07:25N 33°44' W 118°15'0 0.1
2016-Sep-12 06:31N 33°44' W 118°15'0 0.0
2016-Sep-12 03:33N 33°44' W 118°15'0 0.0
2016-Sep-12 01:33N 33°44' W 118°15'0 0.0
2016-Sep-11 23:33N 33°44' W 118°15'0 0.2
2016-Sep-11 22:33N 33°44' W 118°15'6 5.7
2016-Sep-11 21:33N 33°38' W 118°14'9 9.1
2016-Sep-11 20:33N 33°35' W 118°25'1010.5
2016-Sep-11 19:33N 33°36' W 118°37'1010.4
2016-Sep-11 18:33N 33°36' W 118°50'1110.6
2016-Sep-11 17:33N 33°36' W 119°03'1513.3
2016-Sep-11 16:26N 33°36' W 119°21'1415.7
2016-Sep-11 15:33N 33°36' W 119°37'2316.8
2016-Sep-11 14:11N 33°36' W 120°05'1116.5
2016-Sep-11 13:30N 33°36' W 120°19'1616.9
2016-Sep-11 12:32N 33°36' W 120°38'1917.0
2016-Sep-11 11:27N 33°36' W 121°00'2117.4
2016-Sep-11 10:14N 33°37' W 121°25'2917.1
2016-Sep-11 08:32N 33°36' W 122°00'2117.3
2016-Sep-11 07:20N 33°37' W 122°25'6517.3
2016-Sep-11 03:34N 33°38' W 123°43'1413.9
2016-Sep-11 02:33N 33°38' W 124°00'3115.4
2016-Sep-11 00:32N 33°42' W 124°37'3816.5
2016-Sep-10 22:12N 34°03' W 125°16'7219.0
2016-Sep-10 18:26N 34°39' W 126°31'5117.2
2016-Sep-10 15:27N 35°05' W 127°25'1618.1
2016-Sep-10 14:33N 35°13' W 127°42'6619.3
2016-Sep-10 11:06N 35°46' W 128°53'1518.8
2016-Sep-10 10:19N 35°53' W 129°09'5118.4
2016-Sep-10 07:32N 36°18' W 130°04'1818.8
2016-Sep-10 06:33N 36°27' W 130°24'1918.8
2016-Sep-10 05:33N 36°36' W 130°45'1818.4
2016-Sep-10 04:33N 36°44' W 131°05'2218.4
2016-Sep-10 03:21N 36°55' W 131°29'1418.3
2016-Sep-10 02:33N 37°02' W 131°45'1818.1
2016-Sep-10 01:33N 37°10' W 132°06'1818.3
2016-Sep-10 00:33N 37°18' W 132°26'1918.2
2016-Sep-09 23:29N 37°28' W 132°47'1918.4
2016-Sep-09 22:26N 37°36' W 133°09'1618.4
2016-Sep-09 21:33N 37°43' W 133°28'  

Dump ship's entire track history